Time;durP1;ratioP1;P1;durP2;ratioP2;P2;SDS_P1;SDS_P2;PMS_P1;PMS_P2;Temp;Humidity;BMP_temperature;BMP_pressure;BME280_temperature;BME280_humidity;BME280_pressure;Samples;Min_cycle;Max_cycle;Signal;HPM_P1;HPM_P2
2022/03/31 00:00:58;;;;;;;13.17;7.60;;;8.50;99.90;;;8.98;nan;98958.25;4973224;28;20619;-70
2022/03/31 00:03:25;;;;;;;19.43;10.77;;;8.60;99.90;;;8.97;nan;98964.38;4991248;28;21205;-69
2022/03/31 00:05:52;;;;;;;17.70;9.83;;;8.60;99.90;;;8.88;nan;98960.00;4990400;28;20979;-68
2022/03/31 00:08:20;;;;;;;12.60;7.57;;;8.50;99.90;;;8.87;nan;98961.00;4993045;28;20641;-69
2022/03/31 00:10:52;;;;;;;13.20;7.20;;;8.40;99.90;;;8.87;nan;98961.00;4989320;28;20625;-69
2022/03/31 00:13:23;;;;;;;13.73;8.70;;;8.50;99.90;;;8.88;nan;98967.81;4974152;28;20634;-70
2022/03/31 00:15:51;;;;;;;21.10;11.00;;;8.50;99.90;;;8.82;nan;98962.34;4990747;28;20635;-70
2022/03/31 00:18:19;;;;;;;19.07;10.70;;;8.40;99.90;;;8.77;nan;98957.59;4990801;28;20638;-70
2022/03/31 00:20:46;;;;;;;19.23;11.23;;;8.40;99.90;;;8.82;nan;98962.34;4989891;28;21030;-69
2022/03/31 00:23:13;;;;;;;20.20;10.87;;;8.40;99.90;;;8.73;nan;98964.00;4990259;28;20611;-68
2022/03/31 00:25:40;;;;;;;19.60;10.90;;;8.40;99.90;;;8.73;nan;98966.59;4973878;28;20622;-70
2022/03/31 00:28:08;;;;;;;24.67;12.80;;;8.30;99.90;;;8.69;nan;98956.66;4958788;28;21173;-70
2022/03/31 00:30:35;;;;;;;32.03;13.10;;;8.30;99.90;;;8.60;nan;98958.28;4974182;28;20634;-70
2022/03/31 00:33:03;;;;;;;22.60;12.40;;;8.20;99.90;;;8.55;nan;98948.31;4972583;28;20658;-69
2022/03/31 00:35:30;;;;;;;26.17;14.00;;;8.20;99.90;;;8.56;nan;98946.53;4957930;28;20653;-69
2022/03/31 00:37:58;;;;;;;20.83;11.57;;;8.20;99.90;;;8.49;nan;98958.44;5007760;28;20936;-69
2022/03/31 00:40:25;;;;;;;24.20;13.07;;;8.20;99.90;;;8.46;nan;98948.31;4990649;28;20719;-69
2022/03/31 00:42:55;;;;;;;22.37;11.80;;;8.10;99.90;;;8.48;nan;98948.97;4990013;28;20738;-69
2022/03/31 00:45:28;;;;;;;20.93;10.97;;;8.10;99.90;;;8.45;nan;98952.66;4956509;28;20692;-70
2022/03/31 00:47:56;;;;;;;23.83;12.53;;;8.10;99.90;;;8.46;nan;98951.72;4969166;28;20643;-66
2022/03/31 00:50:24;;;;;;;25.40;12.47;;;8.10;99.90;;;8.45;nan;98949.28;4990315;28;20638;-70
2022/03/31 00:52:51;;;;;;;23.33;11.47;;;8.10;99.90;;;8.40;nan;98944.47;4971994;28;20667;-68
2022/03/31 00:55:31;;;;;;;18.97;9.57;;;8.10;99.90;;;8.40;nan;98941.06;4976968;28;20617;-69
2022/03/31 00:57:59;;;;;;;20.67;9.73;;;8.00;99.90;;;8.37;nan;98941.31;4991151;28;21001;-69
2022/03/31 01:00:27;;;;;;;20.70;11.07;;;8.00;99.90;;;8.25;nan;98937.19;4991785;28;20670;-70
2022/03/31 01:02:55;;;;;;;26.80;12.70;;;7.90;99.90;;;8.28;nan;98939.56;4971040;28;20665;-69
2022/03/31 01:05:22;;;;;;;22.43;12.60;;;7.90;99.90;;;8.16;nan;98928.44;4990663;28;20610;-69
2022/03/31 01:07:49;;;;;;;29.30;13.13;;;7.80;99.90;;;8.08;nan;98930.91;4990475;28;20621;-69
2022/03/31 01:10:16;;;;;;;22.80;10.83;;;7.70;99.90;;;8.12;nan;98921.88;4937498;28;20643;-69
2022/03/31 01:12:43;;;;;;;23.13;12.33;;;7.80;99.90;;;8.13;nan;98915.75;4971636;28;21263;-69
2022/03/31 01:15:20;;;;;;;20.23;10.23;;;7.80;99.90;;;8.07;nan;98918.84;4955244;28;20627;-69
2022/03/31 01:17:49;;;;;;;23.57;10.87;;;7.70;99.90;;;8.08;nan;98910.13;4979841;28;20646;-67
2022/03/31 01:20:20;;;;;;;24.50;12.80;;;7.70;99.90;;;8.03;nan;98908.91;4990290;28;20682;-69
2022/03/31 01:22:50;;;;;;;22.77;11.63;;;7.60;99.90;;;7.97;nan;98907.66;4972044;28;20654;-66
2022/03/31 01:25:18;;;;;;;29.57;13.43;;;7.60;99.90;;;7.95;nan;98903.53;4973528;28;21191;-70
2022/03/31 01:27:47;;;;;;;21.67;10.97;;;7.60;99.90;;;7.91;nan;98897.81;4990833;28;20645;-70
2022/03/31 01:30:18;;;;;;;18.70;9.10;;;7.50;99.90;;;7.88;nan;98889.47;4989222;28;20769;-69
2022/03/31 01:32:46;;;;;;;22.60;11.60;;;7.50;99.90;;;7.84;nan;98891.50;4956141;28;20692;-69
2022/03/31 01:35:14;;;;;;;22.27;11.23;;;7.50;99.90;;;7.93;nan;98893.28;4973295;28;20816;-69
2022/03/31 01:37:43;;;;;;;22.90;11.30;;;7.60;99.90;;;7.84;nan;98891.50;4984842;28;20665;-71
2022/03/31 01:40:11;;;;;;;21.53;11.83;;;7.50;99.90;;;7.77;nan;98888.63;4972808;28;20677;-69
2022/03/31 01:42:39;;;;;;;23.33;12.37;;;7.40;99.90;;;7.78;nan;98890.28;4972216;28;20673;-70
2022/03/31 01:45:11;;;;;;;24.00;12.00;;;7.40;99.90;;;7.78;nan;98890.28;4973334;28;20630;-69
2022/03/31 01:47:39;;;;;;;21.38;10.90;;;7.50;99.90;;;7.71;nan;98891.75;4990741;28;20614;-70
2022/03/31 01:50:09;;;;;;;18.85;10.10;;;7.40;99.90;;;7.67;nan;98892.16;4988299;28;20207;-70
2022/03/31 01:52:41;;;;;;;21.17;10.83;;;7.30;99.90;;;7.65;nan;98884.50;4990390;28;20223;-70
2022/03/31 01:55:09;;;;;;;24.00;12.20;;;7.30;99.90;;;7.61;nan;98880.56;4973268;28;20720;-69
2022/03/31 01:57:37;;;;;;;20.60;10.35;;;7.30;99.90;;;7.57;nan;98876.59;4974214;28;20618;-70
2022/03/31 02:00:07;;;;;;;27.30;11.68;;;7.30;99.90;;;7.58;nan;98883.41;4973471;28;20235;-69
2022/03/31 02:02:34;;;;;;;27.05;13.50;;;7.20;99.90;;;7.61;nan;98880.56;4973532;28;20274;-69
2022/03/31 02:05:01;;;;;;;21.15;11.43;;;7.30;99.90;;;7.59;nan;98879.03;4970807;28;20198;-70
2022/03/31 02:07:28;;;;;;;23.85;11.35;;;7.20;99.90;;;7.61;nan;98870.16;4956646;28;20207;-70
2022/03/31 02:09:55;;;;;;;26.05;13.27;;;7.30;99.90;;;7.55;nan;98870.72;4990900;28;20705;-69
2022/03/31 02:12:22;;;;;;;37.83;13.43;;;7.20;99.90;;;7.54;nan;98869.06;4971996;28;20261;-70
2022/03/31 02:14:49;;;;;;;23.63;11.90;;;7.20;99.90;;;7.40;nan;98872.03;4972785;28;20626;-70
2022/03/31 02:17:16;;;;;;;20.65;11.70;;;7.10;99.90;;;7.49;nan;98868.66;4976033;28;20214;-70
2022/03/31 02:19:43;;;;;;;26.30;12.38;;;7.10;99.90;;;7.58;nan;98867.03;4988839;28;20238;-70
2022/03/31 02:22:09;;;;;;;19.70;11.13;;;7.30;99.90;;;7.46;nan;98865.47;4993042;28;20224;-70
2022/03/31 02:24:37;;;;;;;23.77;11.35;;;7.20;99.90;;;7.44;nan;98860.44;4977040;28;20295;-69
2022/03/31 02:27:04;;;;;;;21.38;10.18;;;7.10;99.90;;;7.45;nan;98864.66;4993308;28;20250;-69
2022/03/31 02:29:32;;;;;;;23.52;11.13;;;7.10;99.90;;;7.46;nan;98853.34;4976172;28;20214;-67
2022/03/31 02:31:58;;;;;;;20.30;10.95;;;7.10;99.90;;;7.46;nan;98861.13;4993525;28;20420;-69
2022/03/31 02:34:26;;;;;;;19.98;10.68;;;7.10;99.90;;;7.47;nan;98867.13;4984803;28;20208;-69
2022/03/31 02:36:53;;;;;;;20.05;10.15;;;7.20;99.90;;;7.53;nan;98864.00;4988112;28;20203;-65
2022/03/31 02:39:20;;;;;;;19.10;9.38;;;7.20;99.90;;;7.58;nan;98854.06;4979313;28;20636;-69
2022/03/31 02:41:47;;;;;;;16.77;8.70;;;7.20;99.90;;;7.58;nan;98851.47;4980905;28;20230;-66
2022/03/31 02:44:15;;;;;;;17.27;9.73;;;7.30;99.90;;;7.58;nan;98852.25;4992919;28;20660;-70
2022/03/31 02:46:42;;;;;;;21.02;10.18;;;7.30;99.90;;;7.62;nan;98851.03;4991952;28;20215;-70
2022/03/31 02:49:10;;;;;;;16.50;8.98;;;7.30;99.90;;;7.63;nan;98850.09;4975781;28;20211;-69
2022/03/31 02:51:38;;;;;;;19.50;9.40;;;7.30;99.90;;;7.61;nan;98849.41;4991657;28;20250;-69
2022/03/31 02:56:50;;;;;;;15.70;8.20;;;7.20;99.90;;;7.61;nan;98849.41;4977773;28;20715;-70
2022/03/31 02:59:17;;;;;;;19.53;10.20;;;7.30;99.90;;;7.67;nan;98842.84;4993953;28;20214;-70
2022/03/31 03:01:44;;;;;;;18.40;10.13;;;7.40;99.90;;;7.66;nan;98846.41;4975093;28;20701;-70
2022/03/31 03:04:11;;;;;;;16.70;9.57;;;7.40;99.90;;;7.67;nan;98841.06;4991451;28;20558;-69
2022/03/31 03:06:39;;;;;;;20.60;9.40;;;7.40;99.90;;;7.72;nan;98841.50;4992809;28;20630;-69
2022/03/31 03:09:07;;;;;;;19.13;9.80;;;7.40;99.90;;;7.75;nan;98840.41;4975139;28;20672;-70
2022/03/31 03:11:34;;;;;;;16.33;8.10;;;7.40;99.90;;;7.77;nan;98839.31;4991539;28;20674;-69
2022/03/31 03:14:03;;;;;;;18.20;9.27;;;7.40;99.90;;;7.85;nan;98833.44;4975232;28;20622;-70
2022/03/31 03:16:30;;;;;;;20.03;9.17;;;7.50;99.90;;;7.83;nan;98828.41;4974262;28;20226;-69
2022/03/31 03:18:57;;;;;;;17.80;9.15;;;7.60;99.90;;;7.86;nan;98826.47;4994216;28;20614;-65
2022/03/31 03:21:24;;;;;;;13.27;7.80;;;7.60;99.90;;;7.94;nan;98829.22;4957812;28;20237;-70
2022/03/31 03:23:51;;;;;;;14.60;8.67;;;7.60;99.90;;;7.96;nan;98822.94;4992015;28;20994;-70
2022/03/31 03:26:18;;;;;;;14.83;8.23;;;7.70;99.90;;;7.95;nan;98823.88;4991251;28;20720;-70
2022/03/31 03:28:46;;;;;;;14.23;7.73;;;7.70;99.90;;;8.01;nan;98822.53;4992207;28;20634;-70
2022/03/31 03:31:18;;;;;;;21.50;9.27;;;7.80;99.90;;;7.89;nan;98819.22;4974266;28;20665;-70
2022/03/31 03:33:46;;;;;;;12.37;7.10;;;7.70;99.90;;;8.00;nan;98816.50;4975317;28;20199;-71
2022/03/31 03:36:16;;;;;;;16.37;8.70;;;7.80;99.90;;;8.04;nan;98807.47;4996713;28;20644;-70
2022/03/31 03:38:43;;;;;;;15.90;7.60;;;7.90;99.90;;;8.05;nan;98813.50;4996087;28;20676;-70
2022/03/31 03:41:12;;;;;;;15.40;8.80;;;7.80;99.90;;;7.94;nan;98817.06;4986235;28;21040;-68
2022/03/31 03:43:42;;;;;;;22.90;11.67;;;7.80;99.90;;;7.96;nan;98807.34;4969423;28;20634;-70
2022/03/31 03:46:10;;;;;;;17.42;8.05;;;7.80;99.90;;;7.88;nan;98801.19;4969419;28;21000;-70
2022/03/31 03:48:37;;;;;;;11.02;6.45;;;7.70;99.90;;;7.90;nan;98800.09;4991737;28;20210;-71
2022/03/31 03:51:04;;;;;;;16.40;9.20;;;7.70;99.90;;;7.86;nan;98797.94;5007312;28;20214;-71
2022/03/31 03:53:31;;;;;;;17.97;8.70;;;7.70;99.90;;;7.94;nan;98804.06;4991190;28;21001;-70
2022/03/31 03:55:58;;;;;;;15.60;8.57;;;7.70;99.90;;;7.96;nan;98798.72;4992054;28;20641;-70
2022/03/31 03:58:26;;;;;;;17.73;8.93;;;7.70;99.90;;;7.94;nan;98801.47;4972001;28;20641;-70
2022/03/31 04:00:53;;;;;;;20.27;9.53;;;7.70;99.90;;;7.87;nan;98783.97;4991747;28;20654;-69
2022/03/31 04:03:20;;;;;;;14.45;8.77;;;7.60;99.90;;;7.95;nan;98790.13;4995452;28;20675;-71
2022/03/31 04:05:47;;;;;;;18.20;9.65;;;7.70;99.90;;;7.94;nan;98782.47;4977848;28;20203;-70
2022/03/31 04:08:15;;;;;;;12.23;7.33;;;7.70;99.90;;;7.98;nan;98781.22;4991579;28;20738;-71
2022/03/31 04:10:42;;;;;;;16.03;8.83;;;7.70;99.90;;;8.03;nan;98776.44;4989452;28;20627;-70
2022/03/31 04:13:09;;;;;;;15.35;8.50;;;7.80;99.90;;;7.96;nan;98777.97;4973764;28;20663;-70
2022/03/31 04:15:36;;;;;;;15.23;8.30;;;7.80;99.90;;;7.90;nan;98775.91;4971758;28;20204;-70
2022/03/31 04:18:05;;;;;;;13.97;7.77;;;7.60;99.90;;;7.84;nan;98772.91;4973746;28;20619;-71
2022/03/31 04:20:33;;;;;;;17.63;10.30;;;7.70;99.90;;;7.94;nan;98761.69;4968412;28;20681;-70
2022/03/31 04:23:01;;;;;;;13.23;7.40;;;7.70;99.90;;;7.95;nan;98760.72;4970999;28;20227;-70
2022/03/31 04:25:28;;;;;;;10.60;6.40;;;7.70;99.90;;;7.97;nan;98764.00;4991428;28;20625;-70
2022/03/31 04:27:55;;;;;;;13.90;8.23;;;7.80;99.90;;;7.93;nan;98755.69;4973122;28;20630;-68
2022/03/31 04:30:22;;;;;;;13.43;7.50;;;7.70;99.90;;;7.83;nan;98760.91;4973949;28;20638;-70
2022/03/31 04:32:49;;;;;;;14.17;8.30;;;7.60;99.90;;;7.75;nan;98763.34;4991051;28;20700;-71
2022/03/31 04:35:16;;;;;;;12.10;6.63;;;7.50;99.90;;;7.75;nan;98770.31;4992123;28;21201;-70
2022/03/31 04:37:44;;;;;;;15.57;7.73;;;7.50;99.90;;;7.67;nan;98771.00;4994144;28;21224;-71
2022/03/31 04:40:11;;;;;;;16.73;9.40;;;7.40;99.90;;;7.59;nan;98772.63;5010416;28;20849;-70
2022/03/31 04:42:38;;;;;;;15.90;8.48;;;7.30;99.90;;;7.52;nan;98777.53;4994852;28;20662;-70
2022/03/31 04:45:06;;;;;;;16.73;8.40;;;7.20;99.90;;;7.47;nan;98777.16;4991156;28;20692;-70
2022/03/31 04:47:33;;;;;;;17.67;8.68;;;7.20;99.90;;;7.41;nan;98785.44;4986268;28;20204;-68
2022/03/31 04:50:00;;;;;;;16.50;9.43;;;7.10;99.90;;;7.51;nan;98781.13;4974082;28;20203;-69
2022/03/31 04:52:27;;;;;;;16.42;8.35;;;7.20;99.90;;;7.43;nan;98788.72;4992408;28;20655;-70
2022/03/31 04:54:54;;;;;;;19.33;10.43;;;7.20;99.90;;;7.55;nan;98792.03;4975324;28;20691;-70
2022/03/31 04:57:21;;;;;;;18.65;9.27;;;7.30;99.90;;;7.44;nan;98792.16;4992200;28;20199;-70
2022/03/31 04:59:49;;;;;;;16.63;9.18;;;7.20;99.90;;;7.42;nan;98786.28;4973139;28;20219;-70
2022/03/31 05:02:18;;;;;;;19.77;9.80;;;7.10;99.90;;;7.36;nan;98792.00;4973047;28;20227;-70
2022/03/31 05:04:45;;;;;;;16.05;8.77;;;7.10;99.90;;;7.29;nan;98786.53;4990183;28;20637;-70
2022/03/31 05:07:12;;;;;;;16.65;8.20;;;7.00;99.90;;;7.24;nan;98787.91;4973103;28;20223;-71
2022/03/31 05:09:39;;;;;;;15.77;7.78;;;6.90;99.90;;;7.27;nan;98783.25;4974066;28;20668;-70
2022/03/31 05:12:07;;;;;;;17.30;8.73;;;6.90;99.90;;;7.25;nan;98792.94;5010756;23;20231;-72
2022/03/31 05:14:34;;;;;;;20.70;9.73;;;6.90;99.90;;;7.24;nan;98785.31;5009796;28;20214;-71
2022/03/31 05:17:01;;;;;;;20.80;10.50;;;7.00;99.90;;;7.23;nan;98781.88;4992448;28;20206;-71
2022/03/31 05:19:28;;;;;;;17.10;8.80;;;6.90;99.90;;;7.33;nan;98794.84;5010280;28;20203;-71
2022/03/31 05:21:55;;;;;;;17.08;9.18;;;7.00;99.90;;;7.38;nan;98783.16;4987501;28;20243;-72
2022/03/31 05:24:23;;;;;;;25.38;9.30;;;7.10;99.90;;;7.23;nan;98787.06;4988916;28;20250;-71
2022/03/31 05:26:53;;;;;;;15.20;7.28;;;7.00;99.90;;;7.34;nan;98786.13;4953570;28;20208;-71
2022/03/31 05:29:21;;;;;;;15.17;8.07;;;7.00;99.90;;;7.36;nan;98787.66;4982492;28;20211;-71
2022/03/31 05:31:49;;;;;;;9.75;5.80;;;7.10;99.90;;;7.45;nan;98786.81;4973513;28;20658;-72
2022/03/31 05:34:19;;;;;;;11.50;5.70;;;7.20;99.90;;;7.46;nan;98778.09;4972148;28;20211;-73
2022/03/31 05:36:46;;;;;;;13.05;6.88;;;7.20;99.90;;;7.43;nan;98783.53;4990923;28;20694;-71
2022/03/31 05:39:13;;;;;;;15.38;8.20;;;7.20;99.90;;;7.51;nan;98783.72;4972848;28;20215;-72
2022/03/31 05:41:40;;;;;;;13.80;6.70;;;7.20;99.90;;;7.51;nan;98775.94;4974113;28;20231;-71
2022/03/31 05:44:07;;;;;;;13.75;7.25;;;7.30;99.90;;;7.62;nan;98783.56;4991224;28;20634;-70
2022/03/31 05:46:34;;;;;;;11.13;6.22;;;7.40;99.90;;;7.66;nan;98779.75;4987928;28;20215;-70
2022/03/31 05:49:03;;;;;;;11.60;4.10;;;7.40;99.90;;;7.81;nan;98782.75;4972822;28;20207;-70
2022/03/31 05:51:30;;;;;;;6.82;4.40;;;7.60;99.90;;;7.88;nan;98780.44;4991483;28;20642;-71
2022/03/31 05:53:57;;;;;;;10.00;5.63;;;7.70;99.90;;;7.94;nan;98782.47;4963314;28;20208;-71
2022/03/31 05:56:24;;;;;;;13.52;8.05;;;7.80;99.90;;;7.97;nan;98782.16;4974707;28;20627;-71
2022/03/31 05:58:51;;;;;;;14.87;7.73;;;7.80;99.90;;;7.98;nan;98786.44;4975764;28;20208;-71
2022/03/31 06:01:19;;;;;;;9.57;6.27;;;7.80;99.90;;;8.04;nan;98780.69;4992897;28;20673;-70
2022/03/31 06:03:46;;;;;;;8.87;5.40;;;7.90;99.90;;;8.01;nan;98773.19;4976841;28;20711;-70
2022/03/31 06:06:14;;;;;;;13.07;6.80;;;7.90;99.90;;;8.06;nan;98781.34;4992908;28;20634;-70
2022/03/31 06:08:40;;;;;;;12.90;5.77;;;8.00;99.90;;;7.82;nan;98782.59;4995200;28;20606;-70
2022/03/31 06:11:07;;;;;;;17.23;7.87;;;8.00;99.90;;;8.04;nan;98776.31;4976570;28;20629;-71
2022/03/31 06:13:34;;;;;;;6.20;4.30;;;8.00;99.90;;;8.04;nan;98778.91;4977105;28;20677;-71
2022/03/31 06:16:03;;;;;;;9.97;5.37;;;8.00;99.90;;;8.07;nan;98781.19;4993435;28;20208;-72
2022/03/31 06:18:30;;;;;;;16.40;8.33;;;8.00;99.90;;;8.24;nan;98784.88;4976395;28;21294;-72
2022/03/31 06:20:57;;;;;;;8.30;4.83;;;8.20;99.90;;;8.56;nan;98791.38;4932528;28;20690;-71
2022/03/31 06:23:25;;;;;;;8.03;4.27;;;8.60;99.90;;;8.86;nan;98785.09;4982512;28;20682;-71
2022/03/31 06:25:53;;;;;;;8.80;5.07;;;9.00;99.90;;;8.71;nan;98789.13;4956898;28;20971;-72
2022/03/31 06:28:20;;;;;;;11.27;5.87;;;8.90;99.90;;;9.08;nan;98795.13;4956218;28;20204;-69
2022/03/31 06:30:48;;;;;;;16.93;9.63;;;9.20;99.90;;;9.28;nan;98790.66;4973897;28;20654;-71
2022/03/31 06:33:17;;;;;;;11.43;6.30;;;9.40;99.90;;;9.41;nan;98787.69;4941803;28;20655;-71
2022/03/31 06:35:45;;;;;;;13.60;5.90;;;9.40;99.90;;;9.29;nan;98789.66;4971010;28;20635;-72
2022/03/31 06:38:13;;;;;;;16.83;9.00;;;9.40;99.90;;;9.02;nan;98794.88;4980358;28;20635;-71
2022/03/31 06:40:41;;;;;;;20.43;10.37;;;9.20;99.90;;;9.09;nan;98783.75;4986565;28;20677;-68
2022/03/31 06:43:08;;;;;;;18.90;10.10;;;9.10;99.90;;;9.16;nan;98784.81;4992581;28;20658;-71
2022/03/31 06:45:35;;;;;;;22.80;11.50;;;9.10;99.90;;;9.11;nan;98786.22;4974602;28;20618;-69
2022/03/31 06:48:05;;;;;;;21.77;11.70;;;9.10;99.90;;;9.12;nan;98791.28;4976969;28;20642;-71
2022/03/31 06:50:34;;;;;;;18.37;9.97;;;9.00;99.90;;;9.02;nan;98781.88;4982248;28;21244;-73
2022/03/31 06:53:02;;;;;;;17.77;10.10;;;8.90;99.90;;;8.94;nan;98785.22;4978912;28;20659;-68
2022/03/31 06:55:29;;;;;;;15.97;8.00;;;8.90;99.90;;;9.04;nan;98780.78;4970093;28;21002;-68
2022/03/31 06:57:56;;;;;;;15.00;7.77;;;9.00;99.90;;;9.02;nan;98779.28;4991938;28;21232;-73
2022/03/31 07:00:24;;;;;;;13.03;6.83;;;8.90;99.90;;;8.92;nan;98779.31;4975964;28;21178;-71
2022/03/31 07:02:51;;;;;;;12.90;6.63;;;8.90;99.90;;;8.97;nan;98784.09;4991939;28;20649;-69
2022/03/31 07:05:18;;;;;;;18.90;10.37;;;8.90;99.90;;;8.78;nan;98766.81;4976099;28;20614;-71
2022/03/31 07:07:45;;;;;;;17.40;9.40;;;8.90;99.90;;;8.93;nan;98778.38;4991373;28;20638;-71
2022/03/31 07:10:13;;;;;;;16.00;9.50;;;8.90;99.90;;;9.09;nan;98770.75;4992740;28;21199;-72
2022/03/31 07:12:41;;;;;;;14.17;8.10;;;9.00;99.90;;;9.08;nan;98771.72;4991939;28;20657;-71
2022/03/31 07:15:09;;;;;;;18.53;10.50;;;9.10;99.90;;;9.19;nan;98776.72;4974136;28;21171;-71
2022/03/31 07:17:38;;;;;;;14.60;7.60;;;9.20;99.90;;;9.29;nan;98781.84;4974067;28;20653;-69
2022/03/31 07:20:06;;;;;;;19.00;9.97;;;9.30;99.90;;;9.31;nan;98777.31;4974276;28;21001;-74
2022/03/31 07:22:33;;;;;;;18.50;8.90;;;9.30;99.90;;;9.37;nan;98777.56;4974994;28;20674;-71
2022/03/31 07:25:01;;;;;;;18.90;9.30;;;9.40;99.90;;;9.45;nan;98769.03;4982534;28;20626;-70
2022/03/31 07:27:28;;;;;;;18.70;9.80;;;9.60;99.90;;;9.97;nan;98773.38;4992908;28;20633;-70
2022/03/31 07:29:55;;;;;;;12.40;7.33;;;10.00;99.90;;;10.47;nan;98777.97;4974869;28;20610;-71
2022/03/31 07:32:22;;;;;;;3.77;2.27;;;10.70;99.90;;;10.86;nan;98769.53;4959139;28;20673;-70
2022/03/31 07:34:49;;;;;;;13.73;8.37;;;11.30;99.90;;;10.93;nan;98777.56;4989552;28;20631;-72
2022/03/31 07:37:16;;;;;;;14.17;9.20;;;11.60;99.90;;;11.34;nan;98773.28;4990290;28;20646;-70
2022/03/31 07:39:45;;;;;;;15.33;8.60;;;11.90;99.90;;;11.52;nan;98761.72;4972416;28;20631;-70
2022/03/31 07:42:14;;;;;;;14.87;8.37;;;12.00;99.90;;;11.99;nan;98772.41;4981806;28;20678;-69
2022/03/31 07:44:42;;;;;;;10.60;7.03;;;12.50;99.90;;;12.30;nan;98773.38;4993396;28;20634;-70
2022/03/31 07:47:09;;;;;;;13.37;8.23;;;12.80;99.90;;;12.44;nan;98769.25;4969368;28;20634;-70
2022/03/31 07:49:36;;;;;;;10.90;7.50;;;12.90;99.90;;;12.44;nan;98770.06;4974268;28;21468;-70
2022/03/31 07:52:04;;;;;;;11.83;6.60;;;13.20;99.90;;;12.40;nan;98760.91;4990468;28;21483;-71
2022/03/31 07:54:34;;;;;;;14.53;9.63;;;13.10;99.90;;;12.36;nan;98756.19;4990384;28;20646;-71
2022/03/31 07:57:01;;;;;;;13.57;7.77;;;13.10;99.90;;;12.25;nan;98759.97;4991259;28;21194;-69
2022/03/31 07:59:33;;;;;;;10.67;7.07;;;13.00;99.90;;;12.42;nan;98764.19;4990867;28;20643;-72
2022/03/31 08:02:01;;;;;;;11.77;6.60;;;13.00;99.90;;;12.13;nan;98763.91;4990153;28;21097;-72
2022/03/31 08:04:29;;;;;;;1.40;1.27;;;12.60;99.90;;;11.66;nan;98771.59;4966438;28;20610;-70
2022/03/31 08:06:56;;;;;;;11.50;7.07;;;12.20;99.90;;;11.50;nan;98762.84;4990279;28;20632;-70
2022/03/31 08:09:23;;;;;;;11.83;7.40;;;11.80;99.90;;;11.39;nan;98760.59;4992278;28;20633;-66
2022/03/31 08:11:50;;;;;;;15.63;9.80;;;11.80;99.90;;;11.30;nan;98766.75;4989357;28;20674;-70
2022/03/31 08:14:21;;;;;;;10.30;6.97;;;11.60;99.90;;;11.11;nan;98765.25;4990418;28;21194;-67
2022/03/31 08:16:50;;;;;;;12.40;8.20;;;11.40;99.90;;;11.32;nan;98767.41;4987547;28;20642;-67
2022/03/31 08:19:19;;;;;;;16.07;9.10;;;11.50;99.90;;;11.32;nan;98764.78;4987947;28;20622;-67
2022/03/31 08:21:48;;;;;;;14.87;8.40;;;11.50;99.90;;;11.43;nan;98757.50;4980728;28;20686;-72
2022/03/31 08:24:15;;;;;;;15.93;9.13;;;11.60;99.90;;;11.56;nan;98759.63;4983426;28;21178;-70
2022/03/31 08:26:44;;;;;;;15.03;9.03;;;11.80;99.90;;;11.38;nan;98753.72;4990196;28;20630;-71
2022/03/31 08:29:11;;;;;;;16.57;8.03;;;11.80;99.90;;;11.62;nan;98761.59;4991099;28;20634;-74
2022/03/31 08:31:39;;;;;;;11.40;6.07;;;11.90;99.90;;;11.59;nan;98761.91;4971306;28;21206;-71
2022/03/31 08:34:07;;;;;;;13.97;9.40;;;11.90;99.90;;;11.35;nan;98761.88;4971285;28;20650;-70
2022/03/31 08:36:34;;;;;;;14.13;8.83;;;11.70;99.90;;;11.29;nan;98762.50;4989371;28;20638;-69
2022/03/31 08:39:04;;;;;;;16.43;10.20;;;11.60;99.90;;;11.35;nan;98746.22;4974460;28;20714;-69
2022/03/31 08:41:32;;;;;;;17.80;9.00;;;11.50;99.90;;;10.97;nan;98759.81;4971014;28;20670;-72
2022/03/31 08:43:59;;;;;;;9.60;5.67;;;11.10;99.90;;;11.11;nan;98759.19;4990171;28;20623;-70
2022/03/31 08:46:32;;;;;;;13.27;7.87;;;11.20;99.90;;;11.12;nan;98758.22;4972281;28;21186;-70
2022/03/31 08:49:01;;;;;;;15.20;8.57;;;11.20;99.90;;;10.92;nan;98755.84;4971633;28;20630;-70
2022/03/31 08:51:28;;;;;;;14.13;7.23;;;11.00;99.90;;;10.83;nan;98759.44;4965439;28;20631;-70
2022/03/31 08:53:55;;;;;;;15.33;10.03;;;10.80;99.90;;;10.54;nan;98755.53;4991373;28;21385;-70
2022/03/31 08:56:22;;;;;;;17.43;9.53;;;10.70;99.90;;;10.44;nan;98758.25;4973854;28;20642;-70
2022/03/31 08:59:01;;;;;;;14.83;7.93;;;10.50;99.90;;;10.42;nan;98765.41;4990887;28;20618;-72
2022/03/31 09:01:30;;;;;;;11.63;6.10;;;10.50;99.90;;;10.34;nan;98762.75;4971499;28;20681;-70
2022/03/31 09:03:57;;;;;;;14.60;10.23;;;10.40;99.90;;;10.39;nan;98759.69;4973002;28;20617;-71
2022/03/31 09:06:41;;;;;;;17.20;10.33;;;10.30;99.90;;;10.24;nan;98762.06;4975385;28;21217;-72
2022/03/31 09:09:10;;;;;;;16.97;8.87;;;10.20;99.90;;;10.41;nan;98758.56;4991097;28;20630;-72
2022/03/31 09:11:37;;;;;;;10.07;4.50;;;10.30;99.90;;;10.33;nan;98761.09;4971161;28;20707;-70
2022/03/31 09:14:15;;;;;;;18.87;11.30;;;10.30;99.90;;;10.35;nan;98764.38;4966465;28;20634;-69
2022/03/31 09:16:44;;;;;;;7.80;4.43;;;10.30;99.90;;;10.42;nan;98760.19;4986670;28;20639;-70
2022/03/31 09:19:13;;;;;;;16.00;7.30;;;10.30;99.90;;;10.39;nan;98768.31;4955051;28;20635;-70
2022/03/31 09:21:57;;;;;;;19.47;10.43;;;10.40;99.90;;;10.26;nan;98752.28;4987901;28;20667;-70
2022/03/31 09:24:27;;;;;;;13.57;6.80;;;10.30;99.90;;;10.13;nan;98751.88;4989460;28;20630;-70
2022/03/31 09:26:58;;;;;;;10.20;6.53;;;10.30;99.90;;;10.23;nan;98752.59;4961942;28;20635;-70
2022/03/31 09:29:30;;;;;;;7.60;5.20;;;10.40;99.90;;;10.37;nan;98756.44;4995447;28;20626;-70
2022/03/31 09:32:17;;;;;;;15.80;8.60;;;10.40;99.90;;;10.32;nan;98749.06;4973924;28;20649;-71
2022/03/31 09:34:47;;;;;;;7.07;3.40;;;10.50;99.90;;;10.69;nan;98751.38;4982707;28;20661;-73
2022/03/31 09:37:15;;;;;;;16.30;10.17;;;10.80;99.90;;;10.90;nan;98755.19;4967799;28;20650;-69
2022/03/31 09:39:42;;;;;;;10.73;6.43;;;11.10;99.90;;;10.78;nan;98753.84;4986662;28;21015;-69
2022/03/31 09:42:14;;;;;;;14.43;8.00;;;11.10;99.90;;;10.89;nan;98756.19;4985283;28;20704;-70
2022/03/31 09:44:42;;;;;;;15.50;8.40;;;11.10;99.90;;;11.11;nan;98756.59;4972658;28;20638;-70
2022/03/31 09:47:10;;;;;;;14.23;9.63;;;11.30;99.90;;;11.04;nan;98745.97;4971850;28;20657;-70
2022/03/31 09:49:38;;;;;;;15.27;10.17;;;11.30;99.90;;;11.16;nan;98749.13;4973003;28;20634;-70
2022/03/31 09:52:10;;;;;;;12.93;8.80;;;11.30;99.90;;;11.17;nan;98746.31;4968876;28;20689;-70
2022/03/31 09:54:37;;;;;;;15.20;9.50;;;11.40;99.90;;;11.05;nan;98746.78;4990066;28;20634;-70
2022/03/31 09:57:07;;;;;;;6.77;4.20;;;11.30;99.90;;;11.11;nan;98738.31;4992502;28;20638;-70
2022/03/31 09:59:42;;;;;;;14.27;9.13;;;11.40;99.90;;;10.88;nan;98740.72;4973232;28;20641;-69
2022/03/31 10:02:09;;;;;;;17.43;8.27;;;11.10;99.90;;;10.93;nan;98741.84;4976690;28;20682;-71
2022/03/31 10:04:37;;;;;;;17.97;11.03;;;11.10;99.90;;;11.01;nan;98735.03;4977666;28;20623;-68
2022/03/31 10:07:04;;;;;;;9.30;5.57;;;11.10;99.90;;;11.15;nan;98737.84;4993543;28;21003;-70
2022/03/31 10:09:33;;;;;;;18.43;10.23;;;11.40;99.90;;;11.32;nan;98729.06;4994073;28;20634;-70
2022/03/31 10:12:26;;;;;;;9.57;5.80;;;11.50;99.90;;;11.26;nan;98734.94;4992675;28;20680;-70
2022/03/31 10:15:19;;;;;;;12.90;7.50;;;11.50;99.90;;;11.40;nan;98720.41;4969369;28;21238;-71
2022/03/31 10:17:49;;;;;;;17.60;10.73;;;11.70;99.90;;;11.40;nan;98723.03;4942957;28;20635;-70
2022/03/31 10:20:17;;;;;;;11.30;8.00;;;11.70;99.90;;;11.65;nan;98720.28;4992360;28;20780;-75
2022/03/31 10:25:48;;;;;;;14.70;10.07;;;12.10;99.90;;;11.43;nan;98720.13;4973226;28;20668;-73
2022/03/31 10:28:18;;;;;;;15.83;10.30;;;11.80;99.90;;;11.54;nan;98717.97;4977343;28;20626;-73
2022/03/31 10:31:04;;;;;;;15.43;9.07;;;11.70;99.90;;;11.66;nan;98729.78;4976766;28;21174;-74
2022/03/31 10:33:42;;;;;;;14.07;9.63;;;11.80;99.90;;;11.58;nan;98716.69;4993241;28;20711;-74
2022/03/31 10:36:14;;;;;;;16.07;11.27;;;11.90;99.90;;;11.69;nan;98710.38;4975077;28;20623;-74
2022/03/31 10:39:03;;;;;;;15.20;9.40;;;11.90;99.90;;;11.30;nan;98706.72;4972921;28;21218;-74
2022/03/31 10:41:33;;;;;;;17.70;10.17;;;11.70;99.90;;;11.64;nan;98699.56;4993068;28;21006;-76
2022/03/31 10:44:23;;;;;;;16.03;10.80;;;11.70;99.90;;;11.71;nan;98703.19;4975810;28;20627;-68